Time;durP1;ratioP1;P1;durP2;ratioP2;P2;SDS_P1;SDS_P2;PMS_P1;PMS_P2;Temp;Humidity;BMP_temperature;BMP_pressure;BME280_temperature;BME280_humidity;BME280_pressure;Samples;Min_cycle;Max_cycle;Signal;HPM_P1;HPM_P2
2022/11/03 00:00:53;;;;;;;9.30;7.53;;;;;;;8.37;100.00;153510.22;5104182;28;20506;-86
2022/11/03 00:03:38;;;;;;;7.97;7.17;;;;;;;8.38;100.00;153511.53;5115958;28;20542;-86
2022/11/03 00:06:24;;;;;;;14.17;8.80;;;;;;;8.32;100.00;153497.31;5115011;28;20443;-86
2022/11/03 00:09:11;;;;;;;9.03;7.43;;;;;;;8.30;100.00;153492.16;5104036;28;20451;-86
2022/11/03 00:11:56;;;;;;;10.37;8.07;;;;;;;8.29;100.00;153488.25;5111313;28;20480;-86
2022/11/03 00:14:42;;;;;;;9.57;8.13;;;;;;;8.28;100.00;153487.00;5111804;28;20880;-86
2022/11/03 00:17:28;;;;;;;9.67;7.70;;;;;;;8.25;100.00;153477.88;5123734;27;20694;-86
2022/11/03 00:20:13;;;;;;;10.60;8.03;;;;;;;8.17;100.00;153458.50;5114403;27;20462;-86
2022/11/03 00:22:59;;;;;;;10.47;9.37;;;;;;;8.18;100.00;153459.81;5114375;28;21057;-86
2022/11/03 00:25:44;;;;;;;8.60;7.30;;;;;;;8.11;100.00;153443.00;5106631;27;20430;-86
2022/11/03 00:28:31;;;;;;;11.83;8.60;;;;;;;8.09;100.00;153437.81;5108015;28;20485;-86
2022/11/03 00:31:17;;;;;;;11.63;7.73;;;;;;;8.10;100.00;153440.38;5098993;28;20454;-86
2022/11/03 00:34:04;;;;;;;9.17;8.17;;;;;;;8.14;100.00;153450.75;5116194;28;20423;-86
2022/11/03 00:36:49;;;;;;;8.40;7.57;;;;;;;8.10;100.00;153440.38;5114883;28;20581;-86
2022/11/03 00:39:35;;;;;;;10.20;7.63;;;;;;;8.10;100.00;153439.13;5113089;28;20945;-86
2022/11/03 00:42:20;;;;;;;11.63;7.87;;;;;;;8.05;100.00;153427.47;5114361;28;20443;-86
2022/11/03 00:45:06;;;;;;;9.73;7.63;;;;;;;8.06;100.00;153430.06;5123622;27;20458;-86
2022/11/03 00:51:05;;;;;;;9.27;7.73;;;;;;;8.02;100.00;153419.75;5114250;28;20438;-86
2022/11/03 00:53:52;;;;;;;11.30;8.40;;;;;;;7.98;100.00;153410.69;5123387;27;20450;-86
2022/11/03 00:56:38;;;;;;;10.87;9.40;;;;;;;7.96;100.00;153404.22;5098316;28;20589;-74
2022/11/03 00:59:23;;;;;;;10.77;9.50;;;;;;;7.97;100.00;153406.78;5111097;28;20577;-74
2022/11/03 01:02:08;;;;;;;9.90;8.30;;;;;;;7.95;100.00;153401.63;5115996;27;20450;-74
2022/11/03 01:07:58;;;;;;;11.03;9.30;;;;;;;7.89;100.00;153386.13;5114411;28;20539;-75
2022/11/03 01:11:42;;;;;;;15.07;8.87;;;;;;;7.88;100.00;153384.88;5109025;28;20802;-73
2022/11/03 01:13:49;;;;;;;13.37;9.57;;;;;;;7.78;100.00;153357.72;5111784;28;20448;-74
2022/11/03 01:16:34;;;;;;;10.47;9.10;;;;;;;7.84;100.00;153373.19;5113799;28;20790;-74
2022/11/03 01:19:20;;;;;;;11.60;9.80;;;;;;;7.82;100.00;153368.03;5109770;28;20462;-76
2022/11/03 01:22:06;;;;;;;12.90;9.10;;;;;;;7.77;100.00;153355.13;5102114;28;20902;-73
2022/11/03 01:24:53;;;;;;;12.90;10.57;;;;;;;7.75;100.00;153349.97;5112752;28;20451;-76
2022/11/03 01:27:38;;;;;;;12.00;9.40;;;;;;;7.72;100.00;153342.22;5112659;28;20419;-76
2022/11/03 01:30:23;;;;;;;9.43;8.10;;;;;;;7.74;100.00;153347.38;5109446;27;20439;-75
2022/11/03 01:33:09;;;;;;;12.73;9.57;;;;;;;7.70;100.00;153338.38;5114035;28;20455;-74
2022/11/03 01:35:54;;;;;;;11.50;8.70;;;;;;;7.67;100.00;153329.31;5114279;28;20396;-76
2022/11/03 01:38:40;;;;;;;11.90;10.17;;;;;;;7.62;100.00;153316.41;5117413;27;20462;-77
2022/11/03 01:41:28;;;;;;;11.20;9.50;;;;;;;7.58;100.00;153307.34;5107888;27;20601;-76
2022/11/03 01:44:31;;;;;;;14.83;10.53;;;;;;;7.58;100.00;153306.03;5113619;28;20403;-76
2022/11/03 01:47:23;;;;;;;12.53;9.80;;;;;;;7.56;100.00;153300.88;5108366;28;20541;-76
2022/11/03 01:50:10;;;;;;;10.67;9.60;;;;;;;7.52;100.00;153290.56;5112035;28;20524;-76
2022/11/03 01:52:57;;;;;;;12.20;9.30;;;;;;;7.47;100.00;153277.63;5114371;28;20769;-76
2022/11/03 01:55:42;;;;;;;13.90;9.13;;;;;;;7.47;100.00;153277.63;5112796;28;20903;-75
2022/11/03 01:58:30;;;;;;;13.50;8.57;;;;;;;7.47;100.00;153277.63;5129125;27;20662;-75
2022/11/03 02:01:16;;;;;;;10.30;8.63;;;;;;;7.43;100.00;153267.31;5113038;28;20566;-75
2022/11/03 02:04:05;;;;;;;12.23;8.20;;;;;;;7.44;100.00;153271.16;5112804;28;20565;-76
2022/11/03 02:06:55;;;;;;;9.80;7.60;;;;;;;7.45;100.00;153273.75;5100780;27;20566;-75
2022/11/03 02:09:40;;;;;;;9.40;7.90;;;;;;;7.45;100.00;153272.47;5111631;28;20497;-76
2022/11/03 02:12:26;;;;;;;10.13;8.20;;;;;;;7.46;100.00;153275.06;5111808;28;20435;-76
2022/11/03 02:15:15;;;;;;;8.03;6.80;;;;;;;7.43;100.00;153268.59;5109688;28;20448;-75
2022/11/03 02:18:01;;;;;;;12.03;8.03;;;;;;;7.46;100.00;153275.06;5112449;28;20460;-75
2022/11/03 02:20:49;;;;;;;10.20;7.20;;;;;;;7.47;100.00;153277.63;5086082;28;20447;-75
2022/11/03 02:23:39;;;;;;;8.57;6.87;;;;;;;7.45;100.00;153273.75;5111839;28;20789;-75
2022/11/03 02:26:26;;;;;;;9.20;7.60;;;;;;;7.42;100.00;153264.69;5082661;28;20965;-75
2022/11/03 02:29:12;;;;;;;10.70;8.07;;;;;;;7.39;100.00;153258.25;5112315;28;20444;-76
2022/11/03 02:32:01;;;;;;;9.93;8.33;;;;;;;7.36;100.00;153251.78;5110648;28;20464;-75
2022/11/03 02:34:49;;;;;;;8.40;7.10;;;;;;;7.33;100.00;153244.03;5130037;28;20470;-75
2022/11/03 02:37:36;;;;;;;11.33;7.20;;;;;;;7.30;100.00;153236.34;5096157;28;20922;-75
2022/11/03 02:40:26;;;;;;;7.93;7.13;;;;;;;7.32;100.00;153240.19;5096643;28;20848;-75
2022/11/03 02:43:14;;;;;;;9.23;6.10;;;;;;;7.34;100.00;153245.34;5121341;28;20496;-77
2022/11/03 02:46:00;;;;;;;10.83;7.33;;;;;;;7.33;100.00;153244.03;5114304;28;20514;-76
2022/11/03 02:48:47;;;;;;;8.90;7.20;;;;;;;7.32;100.00;153241.47;5091925;28;20451;-75
2022/11/03 02:51:33;;;;;;;7.13;5.30;;;;;;;7.34;100.00;153246.63;5106228;28;20450;-76
2022/11/03 02:54:21;;;;;;;10.53;6.50;;;;;;;7.35;100.00;153249.25;5100022;28;20442;-75
2022/11/03 02:57:11;;;;;;;8.87;5.93;;;;;;;7.35;100.00;153249.25;5110123;28;20521;-75
2022/11/03 03:00:04;;;;;;;6.67;5.30;;;;;;;7.32;100.00;153241.47;5114629;28;20462;-75
2022/11/03 03:02:54;;;;;;;7.93;6.10;;;;;;;7.30;100.00;153236.34;5087356;28;20459;-76
2022/11/03 03:05:41;;;;;;;6.80;5.50;;;;;;;7.26;100.00;153225.97;5117045;28;20487;-75
2022/11/03 03:08:27;;;;;;;11.20;5.77;;;;;;;7.27;100.00;153227.28;5115173;28;20422;-75
2022/11/03 03:11:12;;;;;;;7.83;5.70;;;;;;;7.29;100.00;153232.44;5112018;28;20493;-75
2022/11/03 03:13:57;;;;;;;7.20;5.30;;;;;;;7.29;100.00;153233.72;5099077;28;20435;-76
2022/11/03 03:16:49;;;;;;;7.00;5.67;;;;;;;7.32;100.00;153241.47;5117105;28;20436;-75
2022/11/03 03:19:47;;;;;;;5.70;5.07;;;;;;;7.38;100.00;153254.41;5116697;27;21115;-75
2022/11/03 03:22:35;;;;;;;8.30;6.17;;;;;;;7.36;100.00;153251.78;5095249;28;20460;-76
2022/11/03 03:25:24;;;;;;;8.47;5.67;;;;;;;7.37;100.00;153253.09;5095814;28;20911;-75
2022/11/03 03:28:12;;;;;;;7.10;6.07;;;;;;;7.38;100.00;153254.41;5116237;27;20932;-76
2022/11/03 03:31:00;;;;;;;7.30;6.60;;;;;;;7.33;100.00;153244.03;5110938;27;20488;-76
2022/11/03 03:33:47;;;;;;;8.37;5.90;;;;;;;7.31;100.00;153238.88;5100979;28;20542;-75
2022/11/03 03:36:35;;;;;;;11.33;6.70;;;;;;;7.29;100.00;153233.72;5116889;27;20447;-76
2022/11/03 03:39:22;;;;;;;12.67;6.53;;;;;;;7.27;100.00;153227.28;5119251;27;20517;-75
2022/11/03 03:42:10;;;;;;;9.17;5.67;;;;;;;7.24;100.00;153219.53;5115644;28;20435;-75
2022/11/03 03:44:56;;;;;;;6.40;5.70;;;;;;;7.24;100.00;153220.81;5099000;28;20404;-75
2022/11/03 03:47:41;;;;;;;7.73;6.10;;;;;;;7.23;100.00;153216.91;5098956;28;20580;-75
2022/11/03 03:50:32;;;;;;;10.00;6.60;;;;;;;7.21;100.00;153211.78;5115235;28;20566;-75
2022/11/03 03:53:19;;;;;;;6.33;5.53;;;;;;;7.20;100.00;153210.47;5116107;28;20380;-75
2022/11/03 03:56:05;;;;;;;10.47;7.70;;;;;;;7.11;100.00;153187.25;5126130;27;20435;-76
2022/11/03 03:58:51;;;;;;;8.10;6.50;;;;;;;7.08;100.00;153179.50;5095128;28;20802;-76
2022/11/03 04:01:36;;;;;;;6.53;5.93;;;;;;;7.12;100.00;153189.81;5095294;28;20471;-75
2022/11/03 04:04:21;;;;;;;7.83;7.00;;;;;;;7.14;100.00;153193.72;5110323;28;20439;-75
2022/11/03 04:10:09;;;;;;;10.53;7.30;;;;;;;7.11;100.00;153185.94;5107399;28;20434;-76
2022/11/03 04:22:17;;;;;;;8.37;7.27;;;;;;;7.14;100.00;153193.72;5107858;27;20470;-75
2022/11/03 04:25:03;;;;;;;12.30;8.90;;;;;;;7.15;100.00;153196.25;5108299;28;20545;-76
2022/11/03 04:27:48;;;;;;;9.87;7.43;;;;;;;7.13;100.00;153192.41;5116503;28;20561;-87
2022/11/03 04:30:33;;;;;;;14.33;8.20;;;;;;;7.12;100.00;153188.56;5111413;28;20533;-87
2022/11/03 04:33:20;;;;;;;10.30;8.13;;;;;;;7.07;100.00;153176.91;5087530;28;20432;-87
2022/11/03 04:36:11;;;;;;;12.87;8.83;;;;;;;7.00;100.00;153158.84;5114973;28;20538;-87
2022/11/03 04:38:57;;;;;;;9.70;8.40;;;;;;;6.99;100.00;153156.25;5105052;28;21020;-87
2022/11/03 04:41:43;;;;;;;11.73;9.43;;;;;;;6.98;100.00;153153.69;5110362;28;20447;-86
2022/11/03 04:44:29;;;;;;;10.60;8.93;;;;;;;6.93;100.00;153139.47;5091761;28;20435;-87
2022/11/03 04:47:17;;;;;;;10.30;9.20;;;;;;;6.90;100.00;153133.03;5116033;28;20565;-87
2022/11/03 04:50:02;;;;;;;11.57;9.10;;;;;;;6.89;100.00;153130.44;5106884;28;20966;-86
2022/11/03 04:52:53;;;;;;;10.83;9.00;;;;;;;6.87;100.00;153125.28;5094556;28;20440;-86
2022/11/03 04:55:41;;;;;;;10.23;9.17;;;;;;;6.81;100.00;153109.78;5099003;28;20462;-86
2022/11/03 04:58:29;;;;;;;10.60;8.87;;;;;;;6.81;100.00;153109.78;5112156;27;20468;-86
2022/11/03 05:01:15;;;;;;;11.67;8.83;;;;;;;6.77;100.00;153099.47;5116045;27;20463;-86
2022/11/03 05:04:01;;;;;;;11.37;9.37;;;;;;;6.78;100.00;153102.03;5098728;28;20827;-85
2022/11/03 05:06:50;;;;;;;12.70;9.30;;;;;;;6.77;100.00;153098.19;5099471;28;20423;-86
2022/11/03 05:09:35;;;;;;;13.23;9.70;;;;;;;6.78;100.00;153102.03;5112017;27;20443;-85
2022/11/03 05:12:22;;;;;;;11.40;9.67;;;;;;;6.70;100.00;153082.66;5097390;28;20440;-86
2022/11/03 05:15:21;;;;;;;11.23;9.10;;;;;;;6.66;100.00;153072.38;5113845;28;20408;-86
2022/11/03 05:18:16;;;;;;;14.70;9.93;;;;;;;6.64;100.00;153065.91;5112162;28;20450;-86
2022/11/03 05:21:03;;;;;;;12.07;9.70;;;;;;;6.64;100.00;153065.91;5113827;28;20451;-85
2022/11/03 05:23:51;;;;;;;15.00;10.00;;;;;;;6.63;100.00;153064.63;5115354;28;20404;-86
2022/11/03 05:26:37;;;;;;;12.90;8.80;;;;;;;6.60;100.00;153055.56;5120894;27;20473;-74
2022/11/03 05:29:29;;;;;;;9.90;8.50;;;;;;;6.57;100.00;153049.13;5097609;28;20497;-75
2022/11/03 05:32:16;;;;;;;10.73;8.83;;;;;;;6.59;100.00;153054.28;5098368;28;20428;-75
2022/11/03 05:35:03;;;;;;;10.87;8.80;;;;;;;6.56;100.00;153046.56;5107413;27;20465;-74
2022/11/03 05:37:48;;;;;;;10.00;8.30;;;;;;;6.54;100.00;153041.38;5113884;28;20601;-74
2022/11/03 05:40:33;;;;;;;9.57;7.57;;;;;;;6.53;100.00;153037.50;5105694;28;20506;-74
2022/11/03 05:43:20;;;;;;;10.30;8.10;;;;;;;6.56;100.00;153045.25;5095713;28;20802;-75
2022/11/03 05:46:10;;;;;;;8.40;7.37;;;;;;;6.58;100.00;153050.41;5106514;28;20946;-75
2022/11/03 05:48:55;;;;;;;8.33;7.43;;;;;;;6.58;100.00;153050.41;5098419;28;20489;-74
2022/11/03 05:51:42;;;;;;;9.67;8.20;;;;;;;6.60;100.00;153055.56;5113089;28;20576;-75
2022/11/03 05:54:29;;;;;;;10.97;8.37;;;;;;;6.66;100.00;153071.06;5118374;27;20538;-75
2022/11/03 05:57:16;;;;;;;10.43;7.40;;;;;;;6.71;100.00;153083.97;5097993;28;20771;-75
2022/11/03 06:00:04;;;;;;;8.83;7.13;;;;;;;6.70;100.00;153081.38;5112786;28;20823;-74
2022/11/03 06:02:59;;;;;;;8.97;7.67;;;;;;;6.72;100.00;153087.81;5110703;27;20817;-75
2022/11/03 06:05:45;;;;;;;11.40;7.60;;;;;;;6.68;100.00;153076.22;5113494;28;20906;-75
2022/11/03 06:08:34;;;;;;;9.03;7.00;;;;;;;6.71;100.00;153083.97;5105223;28;20452;-75
2022/11/03 06:11:32;;;;;;;10.40;7.50;;;;;;;6.70;100.00;153081.38;5109165;28;20525;-75
2022/11/03 06:14:19;;;;;;;8.73;7.20;;;;;;;6.67;100.00;153073.66;5092857;28;20447;-75
2022/11/03 06:17:06;;;;;;;8.77;6.70;;;;;;;6.67;100.00;153073.66;5101082;28;20783;-75
2022/11/03 06:19:54;;;;;;;10.47;7.73;;;;;;;6.69;100.00;153078.81;5109347;28;20459;-76
2022/11/03 06:22:40;;;;;;;9.70;7.00;;;;;;;6.67;100.00;153073.66;5108865;28;20848;-75
2022/11/03 06:25:29;;;;;;;7.70;6.87;;;;;;;6.71;100.00;153085.28;5113524;28;20391;-76
2022/11/03 06:28:18;;;;;;;10.03;7.30;;;;;;;6.77;100.00;153099.47;5111868;28;20968;-75
2022/11/03 06:31:04;;;;;;;11.00;7.23;;;;;;;6.82;100.00;153112.38;5115293;28;20529;-76
2022/11/03 06:33:51;;;;;;;8.23;7.40;;;;;;;6.89;100.00;153130.44;5113422;28;20400;-75
2022/11/03 06:36:37;;;;;;;9.17;6.70;;;;;;;6.96;100.00;153148.53;5112417;28;20570;-76
2022/11/03 06:39:24;;;;;;;8.47;6.77;;;;;;;7.04;100.00;153167.91;5092023;28;21017;-76
2022/11/03 06:42:12;;;;;;;9.07;6.63;;;;;;;7.21;100.00;153211.78;5112269;28;20455;-75
2022/11/03 06:44:57;;;;;;;12.50;6.70;;;;;;;7.43;100.00;153267.31;5113412;28;20449;-75
2022/11/03 06:47:42;;;;;;;9.10;7.10;;;;;;;7.60;100.00;153312.50;5115683;28;20952;-76
2022/11/03 06:50:30;;;;;;;13.03;7.97;;;;;;;7.79;100.00;153360.28;5104155;28;20529;-76
2022/11/03 06:53:21;;;;;;;8.43;7.30;;;;;;;7.94;100.00;153399.09;5112655;28;20517;-76
2022/11/03 06:56:09;;;;;;;10.40;8.40;;;;;;;7.92;100.00;153395.19;5111172;28;20451;-75
2022/11/03 06:58:55;;;;;;;9.33;7.50;;;;;;;8.06;100.00;153430.06;5107427;28;20455;-76
2022/11/03 07:01:41;;;;;;;13.40;8.47;;;;;;;8.16;100.00;153454.59;5112370;28;20952;-76
2022/11/03 07:04:27;;;;;;;11.03;8.60;;;;;;;8.25;100.00;153477.88;5112789;28;20408;-75
2022/11/03 07:07:13;;;;;;;10.77;8.97;;;;;;;8.34;100.00;153501.22;5121118;28;20935;-75
2022/11/03 07:10:00;;;;;;;11.23;7.93;;;;;;;8.65;100.00;153581.34;5112329;28;20423;-75
2022/11/03 07:12:45;;;;;;;10.90;8.10;;;;;;;8.99;100.00;153667.97;5109053;28;20819;-76
2022/11/03 07:15:33;;;;;;;10.53;7.90;;;;;;;9.21;100.00;153723.59;5106699;28;20533;-76
2022/11/03 07:18:22;;;;;;;10.20;6.83;;;;;;;9.23;100.00;153730.03;5110793;28;20806;-75
2022/11/03 07:21:25;;;;;;;9.20;6.67;;;;;;;9.19;100.00;153719.69;5092089;28;20942;-76
2022/11/03 07:24:23;;;;;;;7.47;6.13;;;;;;;9.08;100.00;153691.25;5107835;28;20450;-75
2022/11/03 07:27:15;;;;;;;8.13;6.23;;;;;;;8.99;100.00;153667.97;5097967;28;20459;-75
2022/11/03 07:30:09;;;;;;;7.10;5.97;;;;;;;8.91;100.00;153647.28;5110471;28;20481;-75
2022/11/03 07:33:01;;;;;;;8.30;5.90;;;;;;;8.86;100.00;153634.34;5095717;28;20454;-75
2022/11/03 07:35:48;;;;;;;10.87;6.10;;;;;;;8.92;100.00;153651.13;5102142;28;20439;-75
2022/11/03 07:38:33;;;;;;;11.17;6.47;;;;;;;9.06;100.00;153687.34;5111011;28;20526;-74
2022/11/03 07:41:20;;;;;;;10.90;6.40;;;;;;;9.07;100.00;153688.66;5086595;28;20451;-77
2022/11/03 07:44:14;;;;;;;8.83;6.30;;;;;;;9.07;100.00;153688.66;5103527;28;20581;-76
2022/11/03 07:46:59;;;;;;;9.90;6.80;;;;;;;9.10;100.00;153696.41;5097577;28;20451;-76
2022/11/03 07:49:44;;;;;;;9.73;7.07;;;;;;;9.14;100.00;153708.03;5115122;28;20784;-76
2022/11/03 07:52:30;;;;;;;12.60;6.93;;;;;;;9.16;100.00;153713.22;5120147;27;20451;-76
2022/11/03 07:55:15;;;;;;;7.90;6.03;;;;;;;9.09;100.00;153693.81;5116433;28;20393;-88
2022/11/03 07:58:01;;;;;;;11.17;7.40;;;;;;;9.08;100.00;153691.25;5116772;28;20476;-88
2022/11/03 08:00:48;;;;;;;11.10;7.70;;;;;;;9.11;100.00;153698.97;5115598;28;20455;-89
2022/11/03 08:03:42;;;;;;;10.33;7.50;;;;;;;9.09;100.00;153693.81;5116680;28;20590;-88
2022/11/03 08:06:27;;;;;;;7.83;7.03;;;;;;;9.07;100.00;153689.97;5115793;28;20511;-88
2022/11/03 08:09:13;;;;;;;9.60;6.83;;;;;;;9.12;100.00;153702.88;5111554;28;20452;-88
2022/11/03 08:12:00;;;;;;;9.80;7.70;;;;;;;9.10;100.00;153697.72;5115756;28;20749;-88
2022/11/03 08:14:45;;;;;;;10.50;7.37;;;;;;;9.11;100.00;153698.97;5090609;28;20444;-89
2022/11/03 08:17:32;;;;;;;11.33;8.03;;;;;;;9.14;100.00;153706.75;5108415;28;20580;-88
2022/11/03 08:20:17;;;;;;;12.40;8.10;;;;;;;9.17;100.00;153714.50;5106334;28;20463;-88
2022/11/03 08:23:03;;;;;;;10.00;7.23;;;;;;;9.16;100.00;153713.22;5108327;28;20543;-88
2022/11/03 08:25:48;;;;;;;12.80;6.73;;;;;;;9.25;100.00;153733.91;5107321;28;20528;-88
2022/11/03 08:28:34;;;;;;;13.33;8.80;;;;;;;9.27;100.00;153740.38;5110200;28;20447;-88
2022/11/03 08:31:19;;;;;;;8.00;6.60;;;;;;;9.26;100.00;153737.81;5114841;28;20449;-88
2022/11/03 08:34:06;;;;;;;7.47;6.60;;;;;;;9.33;100.00;153754.59;5105900;28;20438;-88
2022/11/03 08:36:51;;;;;;;8.80;7.23;;;;;;;9.38;100.00;153767.53;5103872;28;20448;-89
2022/11/03 08:39:37;;;;;;;10.23;6.90;;;;;;;9.49;100.00;153796.00;5107210;28;20577;-88
2022/11/03 08:42:22;;;;;;;7.57;6.33;;;;;;;9.52;100.00;153805.06;5110271;28;20768;-88
2022/11/03 08:45:08;;;;;;;8.67;6.17;;;;;;;9.54;100.00;153808.94;5114666;28;20446;-88
2022/11/03 08:47:58;;;;;;;6.67;5.93;;;;;;;9.59;100.00;153821.88;5113156;28;20505;-89
2022/11/03 08:50:45;;;;;;;7.70;5.63;;;;;;;9.69;100.00;153847.72;5099194;28;20428;-89
2022/11/03 08:53:30;;;;;;;7.27;6.33;;;;;;;9.70;100.00;153851.63;5098326;28;20426;-89
2022/11/03 08:56:22;;;;;;;8.50;5.30;;;;;;;9.73;100.00;153859.41;5099132;28;20992;-88
2022/11/03 08:59:07;;;;;;;10.53;6.87;;;;;;;9.77;100.00;153869.75;5113875;28;20439;-88
2022/11/03 09:01:52;;;;;;;7.53;5.70;;;;;;;9.85;100.00;153887.88;5108936;28;20440;-88
2022/11/03 09:04:38;;;;;;;9.67;6.20;;;;;;;9.93;100.00;153908.59;5114788;28;20579;-88
2022/11/03 09:07:25;;;;;;;12.60;7.00;;;;;;;9.93;100.00;153909.84;5115181;28;20434;-88
2022/11/03 09:10:10;;;;;;;8.77;5.30;;;;;;;9.94;100.00;153911.16;5115255;28;20470;-89
2022/11/03 09:12:56;;;;;;;6.40;5.40;;;;;;;10.00;100.00;153926.69;5099341;28;20446;-88
2022/11/03 09:15:41;;;;;;;6.83;6.13;;;;;;;10.09;100.00;153949.97;5114238;28;20424;-88
2022/11/03 09:18:26;;;;;;;10.10;5.83;;;;;;;10.12;100.00;153959.09;5114855;28;20469;-87
2022/11/03 09:21:12;;;;;;;6.00;4.90;;;;;;;10.18;100.00;153973.34;5114548;28;20513;-88
2022/11/03 09:23:59;;;;;;;8.53;5.57;;;;;;;10.20;100.00;153978.50;5114619;28;20562;-88
2022/11/03 09:26:44;;;;;;;5.77;5.10;;;;;;;10.29;100.00;154001.81;5113985;28;20424;-88
2022/11/03 09:29:30;;;;;;;6.00;5.10;;;;;;;10.31;100.00;154007.00;5113598;28;20427;-88
2022/11/03 09:32:15;;;;;;;8.17;4.70;;;;;;;10.36;100.00;154021.22;5114023;28;20532;-88
2022/11/03 09:35:01;;;;;;;6.00;4.30;;;;;;;10.47;100.00;154047.13;5098604;28;20513;-88
2022/11/03 09:37:46;;;;;;;6.50;4.30;;;;;;;10.55;100.00;154069.13;5098624;28;20426;-88
2022/11/03 09:40:34;;;;;;;9.93;4.50;;;;;;;10.59;100.00;154079.47;5112265;28;20560;-88
2022/11/03 09:43:19;;;;;;;5.23;4.27;;;;;;;10.69;100.00;154105.41;5103563;28;20502;-88
2022/11/03 09:46:05;;;;;;;6.93;3.73;;;;;;;10.75;100.00;154119.66;5111041;28;20439;-88
2022/11/03 09:48:50;;;;;;;6.57;3.60;;;;;;;10.77;100.00;154124.81;5096392;28;20891;-88
2022/11/03 09:51:36;;;;;;;4.60;3.50;;;;;;;10.88;100.00;154153.31;5112486;28;20469;-88
2022/11/03 09:54:21;;;;;;;5.37;3.90;;;;;;;11.09;100.00;154207.72;5106544;28;20431;-88
2022/11/03 09:57:12;;;;;;;4.67;3.50;;;;;;;11.02;100.00;154190.84;5091529;28;20447;-88
2022/11/03 09:59:57;;;;;;;6.50;3.50;;;;;;;11.00;100.00;154185.69;5099696;28;20454;-88
2022/11/03 10:02:43;;;;;;;9.07;3.60;;;;;;;11.10;100.00;154210.28;5113937;28;20505;-88
2022/11/03 10:05:29;;;;;;;4.90;3.23;;;;;;;11.12;100.00;154215.44;5106788;28;20805;-88
2022/11/03 10:08:20;;;;;;;5.80;3.43;;;;;;;11.18;100.00;154229.72;5096424;28;20440;-88
2022/11/03 10:11:08;;;;;;;6.43;3.83;;;;;;;11.16;100.00;154225.84;5103742;28;20436;-88
2022/11/03 10:13:56;;;;;;;5.90;4.33;;;;;;;11.18;100.00;154231.00;5105815;28;20428;-76
2022/11/03 10:16:42;;;;;;;5.00;3.50;;;;;;;11.24;100.00;154245.25;5109319;28;20522;-76
2022/11/03 10:19:28;;;;;;;5.20;3.60;;;;;;;11.24;100.00;154245.25;5098343;28;20436;-76
2022/11/03 10:22:13;;;;;;;5.50;3.43;;;;;;;11.22;100.00;154241.41;5105310;28;20528;-76
2022/11/03 10:25:28;;;;;;;4.43;3.60;;;;;;;11.24;100.00;154246.56;5100492;28;20434;-76
2022/11/03 10:28:15;;;;;;;3.83;3.43;;;;;;;11.27;100.00;154253.03;5109512;28;20956;-76
2022/11/03 10:31:05;;;;;;;4.90;3.50;;;;;;;11.28;100.00;154256.91;5112303;28;20481;-75
2022/11/03 10:33:52;;;;;;;4.03;3.30;;;;;;;11.34;100.00;154272.47;5109482;28;20447;-75
2022/11/03 10:36:37;;;;;;;5.17;3.70;;;;;;;11.36;100.00;154276.34;5110650;28;20514;-77
2022/11/03 10:39:25;;;;;;;9.53;3.30;;;;;;;11.34;100.00;154271.16;5112176;28;20451;-75
2022/11/03 10:42:18;;;;;;;5.77;3.57;;;;;;;11.36;100.00;154276.34;5099244;28;20795;-75
2022/11/03 10:45:11;;;;;;;16.87;3.90;;;;;;;11.37;100.00;154278.94;5110451;28;20451;-75
2022/11/03 10:48:02;;;;;;;5.80;3.80;;;;;;;11.43;100.00;154294.50;5107845;28;20435;-75
2022/11/03 10:50:47;;;;;;;5.60;3.80;;;;;;;11.39;100.00;154285.41;5109593;28;20436;-75
2022/11/03 10:53:33;;;;;;;4.00;3.50;;;;;;;11.42;100.00;154291.91;5108263;28;20432;-76
2022/11/03 10:56:18;;;;;;;7.90;3.73;;;;;;;11.51;100.00;154315.25;5110742;28;20466;-75
2022/11/03 10:59:03;;;;;;;9.13;5.67;;;;;;;11.56;100.00;154329.50;5109301;28;20439;-76
2022/11/03 11:01:49;;;;;;;6.77;4.07;;;;;;;11.58;100.00;154333.38;5110669;28;20517;-75
2022/11/03 11:04:40;;;;;;;8.50;4.07;;;;;;;11.59;100.00;154335.97;5100041;28;20408;-75
2022/11/03 11:10:18;;;;;;;7.53;4.90;;;;;;;11.73;100.00;154372.28;5046119;22;20493;-89
2022/11/03 11:13:05;;;;;;;5.43;4.80;;;;;;;11.75;100.00;154377.50;5066994;28;20467;-89
2022/11/03 11:15:52;;;;;;;11.40;5.03;;;;;;;11.82;100.00;154395.63;5057693;28;20525;-89
2022/11/03 11:19:05;;;;;;;4.83;3.80;;;;;;;11.89;100.00;154413.75;5071384;28;20449;-89
2022/11/03 11:22:13;;;;;;;7.37;4.73;;;;;;;11.86;100.00;154405.97;5031700;28;20557;-90
2022/11/03 11:25:00;;;;;;;6.60;5.13;;;;;;;11.90;100.00;154416.38;5069671;28;20527;-90
2022/11/03 11:27:58;;;;;;;8.77;5.40;;;;;;;11.94;100.00;154426.72;5072316;28;20490;-90
2022/11/03 11:31:22;;;;;;;7.07;5.30;;;;;;;12.02;100.00;154446.19;5066190;28;20476;-89
2022/11/03 11:34:37;;;;;;;9.67;5.97;;;;;;;11.95;100.00;154428.00;5074672;28;20797;-90
2022/11/03 11:37:35;;;;;;;9.17;5.57;;;;;;;11.96;100.00;154431.94;5041041;28;20410;-90
2022/11/03 11:40:50;;;;;;;9.53;5.30;;;;;;;12.02;100.00;154447.44;5072885;28;20484;-89
2022/11/03 11:43:36;;;;;;;8.20;6.17;;;;;;;12.04;100.00;154452.69;5074295;28;20894;-89
2022/11/03 11:47:02;;;;;;;6.20;5.30;;;;;;;12.05;100.00;154455.25;5074748;28;20426;-90
2022/11/03 11:49:47;;;;;;;6.80;5.13;;;;;;;12.06;100.00;154456.53;5052821;28;20778;-90
2022/11/03 11:52:37;;;;;;;8.70;5.73;;;;;;;12.08;100.00;154461.72;5061124;28;20445;-88
2022/11/03 11:55:29;;;;;;;9.23;5.40;;;;;;;12.12;100.00;154472.13;5073161;28;20449;-89
2022/11/03 11:58:19;;;;;;;8.60;6.07;;;;;;;12.17;100.00;154486.38;5073820;28;20930;-89
2022/11/03 12:01:07;;;;;;;10.30;5.90;;;;;;;12.10;100.00;154466.88;5073089;28;20461;-88
2022/11/03 12:03:54;;;;;;;7.10;5.90;;;;;;;12.14;100.00;154477.28;5062252;28;20458;-89
2022/11/03 12:06:41;;;;;;;8.90;6.50;;;;;;;12.11;100.00;154470.81;5068744;28;20527;-90
2022/11/03 12:09:28;;;;;;;10.70;6.80;;;;;;;12.12;100.00;154473.41;5061989;28;20485;-90
2022/11/03 12:12:33;;;;;;;6.43;5.70;;;;;;;12.16;100.00;154482.47;5072216;28;20436;-90
2022/11/03 12:15:49;;;;;;;8.13;6.20;;;;;;;12.24;100.00;154503.19;5074924;28;20842;-90
2022/11/03 12:18:37;;;;;;;6.57;5.20;;;;;;;12.23;99.91;154499.34;5061088;28;20599;-90
2022/11/03 12:21:44;;;;;;;6.90;5.47;;;;;;;12.21;99.40;154496.72;5072634;28;20449;-89
2022/11/03 12:24:49;;;;;;;9.57;6.50;;;;;;;12.20;99.58;154492.84;5073158;28;20503;-90
2022/11/03 12:27:42;;;;;;;6.20;5.60;;;;;;;12.25;98.93;154504.50;5074303;28;21004;-90
2022/11/03 12:30:27;;;;;;;6.07;5.47;;;;;;;12.20;99.18;154494.13;5066003;28;20420;-89
2022/11/03 12:33:13;;;;;;;7.40;6.70;;;;;;;12.18;99.26;154488.94;5058866;28;20472;-90
2022/11/03 12:35:58;;;;;;;7.77;5.90;;;;;;;12.30;98.34;154517.47;5074771;28;20491;-89
2022/11/03 12:38:44;;;;;;;7.60;6.40;;;;;;;12.21;99.04;154495.41;5057419;28;20587;-89
2022/11/03 12:41:30;;;;;;;9.50;8.50;;;;;;;12.15;100.00;154481.16;5058126;28;20510;-89
2022/11/03 12:44:15;;;;;;;8.40;6.30;;;;;;;12.11;100.00;154470.81;5071094;28;20445;-89
2022/11/03 12:47:01;;;;;;;6.83;6.07;;;;;;;12.12;100.00;154473.41;5072429;28;20457;-89
2022/11/03 12:49:47;;;;;;;8.33;6.53;;;;;;;12.11;100.00;154470.81;5058011;28;20446;-89
2022/11/03 12:52:33;;;;;;;11.87;9.50;;;;;;;12.13;100.00;154474.66;5073257;28;20460;-89
2022/11/03 12:55:18;;;;;;;9.53;8.60;;;;;;;12.15;100.00;154479.91;5069546;28;20500;-89
2022/11/03 12:58:08;;;;;;;10.00;8.27;;;;;;;12.16;100.00;154482.47;5069825;28;20899;-89
2022/11/03 13:00:53;;;;;;;8.73;7.93;;;;;;;12.17;100.00;154485.06;5072294;28;20460;-89
2022/11/03 13:03:39;;;;;;;9.53;7.10;;;;;;;12.15;100.00;154481.16;5066467;28;20594;-89
2022/11/03 13:06:24;;;;;;;6.80;6.10;;;;;;;12.17;100.00;154486.38;5058911;28;20450;-89
2022/11/03 13:09:10;;;;;;;12.90;6.43;;;;;;;12.16;100.00;154483.78;5064717;28;20465;-90
2022/11/03 13:15:01;;;;;;;9.33;7.67;;;;;;;12.17;100.00;154485.06;5060670;28;20814;-89
2022/11/03 13:17:46;;;;;;;10.57;9.50;;;;;;;12.16;100.00;154482.47;5066974;28;20473;-89
2022/11/03 13:20:32;;;;;;;9.70;7.73;;;;;;;12.17;100.00;154486.38;5070141;28;20787;-89